Área dos Cursos
35º Festival de dança de joinville
 
 | Home | Sair |
 
CURSOS PROFESSORES INSCRIÇÕES
Clique nos títulos dos cursos para visualizar a programação completa.
Escolha os cursos desejados clicando nas caixas de seleção ao lado direito de cada curso, abaixo do carrinho de compra!
Para finalizar clique botão COMPRAR CURSOS abaixo da listagem.
Atenção: Caso não apareça o curso na listagem abaixo é porque você já o comprou ou o reservou.

Legenda:      V = Vagas ofertadas      D = Vagas disponíveis


CODCURSOPROFESSORDATAHORÁRIOR$VD
1balé clássico - avançadoFÁTIMA CERQUEIRA18/07/2017 a 21/07/201713:30 - 15:30240,00322
2BALÉ CLÁSSICO - DANÇA A CARÁTER - SêNIOR - INTERMEDIÁRIOmaria eugênia barrios18/07/2017 a 21/07/201716:10 - 18:10240,003231
3BALÉ CLÁSSICO - INFANTIL - INICIANTEFATIMA FONTENELLE18/07/2017 a 21/07/20178:00 - 10:00240,00320
4BALÉ CLÁSSICO - INFANTIL - INTERMEDIÁRIOFATIMA FONTENELLE18/07/2017 a 21/07/201710:30 - 12:30240,00320
5balé clássico - júnior - inicianteCARLLA BUBLITZ18/07/2017 a 21/07/201713:30 - 15:30240,00320
6balé clássico - júnior - intermediárioBEATRIZ ALMEIDA18/07/2017 a 21/07/20178:00 - 10:00240,00321
7balé clássico - júnior - intermediárioBEATRIZ ALMEIDA18/07/2017 a 21/07/201710:30 - 12:30240,00320
8Balé Clássico - Júnior - IntermediárioCARLLA BUBLITZ18/07/2017 a 21/07/201710:30 - 12:30240,00320
9Balé Clássico - Júnior - IntermediárioCARLLA BUBLITZ18/07/2017 a 21/07/201716:10 - 18:10240,00321
10BALÉ CLÁSSICO - SêNIOR - INICIANTENEYDE ROSSI18/07/2017 a 21/07/201716:10 - 18:10240,00327
11BALÉ CLÁSSICO - SÊNIOR - INTERMEDIÁRIOFAUZI MANSUR18/07/2017 a 21/07/20178:00 - 10:00240,00320
12balé clássico - sênior - intermediárioISOLINA RABELLO18/07/2017 a 21/07/201713:30 - 15:30240,003217
13BALÉ CLÁSSICO - SÊNIOR - INTERMEDIÁRIOISOLINA RABELLO18/07/2017 a 21/07/201716:10 - 18:10240,003218
14balé clássico - sênior - intermediárioLUIS AUGUSTO RIBEIRO18/07/2017 a 21/07/20178:00 - 10:00240,003224
15barra á terreMILTON KENNEDY18/07/2017 a 21/07/201710:30 - 12:30205,00281
16CURSO PARA PROFESSOR - A VISÃO DO PROFESSOR: Como potencializar o ensino/aprendizagem através da análise dos movimentos (TEÓRICO/PRÁTICO)Flávio Sampaio18/07/2017 a 21/07/20178:00 - 10:00205,00280
17A história e Equipamentos da iluminaçãoDAVID BOSBOOm18/07/2017 a 21/07/201710:30 - 12:30205,002817
18dança contemporânea - avançadoHOLLY CAVRELL18/07/2017 a 21/07/20178:00 - 10:00205,002814
19DANÇA CONTEMPORÂNEA - JÚNIOR - INTERMEDIÁRIOHOLLY CAVRELL18/07/2017 a 21/07/201716:10 - 18:10205,002816
20DANÇA CONTEMPORÂNEA - SêNIOR - INTERMEDIÁRIOluciana paludo18/07/2017 a 21/07/201710:30 - 12:30205,00287
21DANÇA FLAMENCAMIRI GALEANO18/07/2017 a 21/07/201713:30 - 15:30240,002816
22danças populares brasileiraseleonora gabriel18/07/2017 a 21/07/20178:00 - 10:00205,002815
23DANÇAS URBANAS - HIP HOP EXPERIMENTALJULIANA KIS18/07/2017 a 21/07/201710:30 - 12:30205,00289
24ENSAIADOR E ASSISTENTE DE COREOGRAFIAMARCIA de castro18/07/2017 a 21/07/201716:10 - 18:10205,002822
25JAZZ LÍRICO - JúNIOR - INICIANTELUAN RATTACASO18/07/2017 a 21/07/20178:00 - 10:00205,002814
26JAZZ LÍRICO - JúNIOR - INTERMEDIÁRIOLUAN RATTACASO18/07/2017 a 21/07/201716:10 - 18:10205,002818
27JAZZ MUSICAL - INTERMEDIÁRIOFernanda Chamma18/07/2017 a 21/07/201713:30 - 15:30205,00280
28METODOLOGIA DE ENSINO DO BALÉ PARA PROFESSORES I (teórico)VERA ARAGÃO18/07/2017 a 21/07/201716:10 - 18:10205,00280
29MODERN JAZZ - SÊNIOR - INTERMEDIÁRIOCAIO NUNES18/07/2017 a 21/07/201713:30 - 15:30205,00280
30PAS DE DEUX CLÁSSICO - TÉCNICA E EXPRESSÃO - VAGAS FEMININASPAULO RODRIGUES18/07/2017 a 21/07/201713:30 - 15:30240,00160
31pas de deux clássico - técnica e expressão - vagas masculinasPAULO RODRIGUES18/07/2017 a 21/07/201713:30 - 15:30240,001615
32preparação física para bailarinosMILTON KENNEDY18/07/2017 a 21/07/201716:10 - 18:10205,00281
33SAPATEADO - INFANTIL - INTERMEDIÁRIOBia mattar18/07/2017 a 21/07/201713:30 - 15:30205,002818
34técnica de pontas - júnior - inicianteNEYDE ROSSI18/07/2017 a 21/07/201710:30 - 12:30240,00328
35balé clássico - avançadogustavo lopes22/07/2017 a 25/07/201716:10 - 18:10240,003218
36BALÉ CLÁSSICO - DANÇA A CARÁTER - SêNIOR - INTERMEDIÁRIOmaria eugênia barrios22/07/2017 a 25/07/201710:30 - 12:30240,003230
37balé clássico - júnior - inicianteCARLLA BUBLITZ22/07/2017 a 25/07/20178:00 - 10:00240,003224
38Balé Clássico - Júnior - IntermediárioCARLLA BUBLITZ22/07/2017 a 25/07/201710:30 - 12:30240,00320
39balé clássico - júnior - intermediárioilara lopes22/07/2017 a 25/07/20178:00 - 10:00240,003211
40BALÉ CLÁSSICO - JÚNIOR - INTERMEDIÁRIOISOLINA RABELLO22/07/2017 a 25/07/201713:30 - 15:30240,003226
41balé clássico - infantil - intermediárioISOLINA RABELLO22/07/2017 a 25/07/201716:10 - 18:10240,00325
42balé clássico - sênior - inicianteBEATRIZ ALMEIDA22/07/2017 a 25/07/201710:30 - 12:30240,003213
43balé clássico - sênior - intermediáriogustavo lopes22/07/2017 a 25/07/201713:30 - 15:30240,003228
44balé clássico - sênior - intermediárioilara lopes22/07/2017 a 25/07/201710:30 - 12:30240,00324
45BALÉ CLÁSSICO - SÊNIOR - INTERMEDIÁRIONEYDE ROSSI22/07/2017 a 25/07/20178:00 - 10:00240,003218
46Balé Clássico - Sênior - IntermediárioNEYDE ROSSI22/07/2017 a 25/07/201716:10 - 18:10240,003227
47BARRA À TERREMILTON KENNEDY22/07/2017 a 25/07/20178:00 - 10:00205,002812
48Conceitos de Design de IluminaçãoDAVID BOSBOOm22/07/2017 a 25/07/201710:30 - 12:30205,00286
49DANÇA CONTEMPORÂNEA - JÚNIOR - INTERMEDIÁRIOFLÁVIO LIMA22/07/2017 a 25/07/201710:30 - 12:30205,002816
50dança contemporânea - júnior - intermediáriowagner moreira22/07/2017 a 25/07/201716:10 - 18:10205,002826
51DANÇA CONTEMPORÂNEA - SÊNIOR - INTERMEDIÁRIOFLÁVIO LIMA22/07/2017 a 25/07/201716:10 - 18:10205,002820
52dança contemporânea - sênior - intermediáriowagner moreira22/07/2017 a 25/07/201713:30 - 15:30205,002813
53DANÇAS URBANAS - práticasugo alexandre22/07/2017 a 25/07/20178:00 - 10:00205,002817
54INTRODUÇÃO A DANÇA DO VENTREclara sussekind22/07/2017 a 25/07/201716:10 - 18:10205,002816
55JAZZ DANCEHELÔ GOUVEIA22/07/2017 a 25/07/201713:30 - 15:30205,00281
56jazz dance - júnior - intermediárioANDREA SPOSITO22/07/2017 a 25/07/20178:00 - 10:00205,00285
57Jazz Dance - sÊnior - InicianteANDREA SPOSITO22/07/2017 a 25/07/201710:30 - 12:30205,00280
58JAZZ DANCE - SÊNIOR - INTERMEDIÁRIOANDREA SPOSITO22/07/2017 a 25/07/201716:10 - 18:10205,00280
59MÉTODO RP2 - MOBILIDADE FUNCIONALMEG MENDONÇA22/07/2017 a 25/07/20178:00 - 10:00205,002814
60MÉTODO RP2 - MOBILIDADE FUNCIONALMEG MENDONÇA22/07/2017 a 25/07/201716:10 - 18:10205,002819
61METODOLOGIA DE ENSINO DO BALÉ PARA PROFESSORES II (teórico)VERA ARAGÃO22/07/2017 a 25/07/20178:00 - 10:00205,00280
62O GRANDE LEGADO DA RÚSSIA DO SÉCULO XIX - BALés COMPLETOS DE REPERTÓRIOELIANA CAMINADA22/07/2017 a 25/07/201713:30 - 15:30205,003210
63PAS DE DEUX CLÁSSICO - TÉCNICA E EXPRESSÃO - VAGAS FEMININASPAULO RODRIGUES22/07/2017 a 25/07/201713:30 - 15:30240,00164
64PAS DE DEUX CLÁSSICO - TÉCNICA E EXPRESSÃO - VAGAS MASCULINASPAULO RODRIGUES22/07/2017 a 25/07/201713:30 - 15:30240,001613
65PREPARAÇÃO FÍSICA PARA BAILARINOSMILTON KENNEDY22/07/2017 a 25/07/201710:30 - 12:30205,00280
66preparação física para bailarinosMILTON KENNEDY22/07/2017 a 25/07/201713:30 - 15:30205,00280
67SAPATEADO - JÚNIOR - INTERMEDIÁRIOflavia costa22/07/2017 a 25/07/201713:30 - 15:30205,002823
68TÉCNICA DE PONTAS - SÊNIOR - INICIANTEmaria eugênia barrios22/07/2017 a 25/07/20178:00 - 10:00240,00328
69Balé Clássico - Avançadogustavo lopes26/07/2017 a 29/07/201716:10 - 18:10240,003225
70Balé Clássico - Júnior - InicianteCARLLA BUBLITZ26/07/2017 a 29/07/20178:00 - 10:00240,003226
71Balé Clássico - Júnior - IntermediárioBEATRIZ ALMEIDA26/07/2017 a 29/07/20178:00 - 10:00240,003225
72Balé Clássico - Júnior - IntermediárioBEATRIZ ALMEIDA26/07/2017 a 29/07/201716:10 - 18:10240,003226
73Balé Clássico - Júnior - IntermediárioCARLLA BUBLITZ26/07/2017 a 29/07/201710:30 - 12:30240,003219
74Balé Clássico - JÚnior - Intermediárioilara lopes26/07/2017 a 29/07/20178:00 - 10:00240,003231
75Balé Clássico - Sênior - Inicianteilara lopes26/07/2017 a 29/07/201710:30 - 12:30240,003218
76Balé Clássico - Sênior - IntermediárioFÁTIMA CERQUEIRA26/07/2017 a 29/07/201713:30 - 15:30240,003220
77Balé Clássico - Sênior - Intermediáriogustavo lopes26/07/2017 a 29/07/20178:00 - 10:00240,003226
78BALÉ CLÁSSICO - SêNIOR - INTERMEDIÁRIOmaria eugênia barrios26/07/2017 a 29/07/201710:30 - 12:30240,003230
79BALÉ CLÁSSICO - SêNIOR - INTERMEDIÁRIOmaria eugênia barrios26/07/2017 a 29/07/201716:10 - 18:10240,003232
80Balé Clássico - Sênior - IntermediárioNEYDE ROSSI26/07/2017 a 29/07/201710:30 - 12:30240,003223
81Balé Clássico - Sênior - Intermediárioregina kotaka26/07/2017 a 29/07/201713:30 - 15:30240,003218
82BARRA À TERREMILTON KENNEDY26/07/2017 a 29/07/20178:00 - 10:00205,00280
83CURSO PARA PROFESSOR - JAZZ DANCE (PRÁTICO/TEÓRICO)ANDREA SPOSITO26/07/2017 a 29/07/20178:00 - 10:00205,00280
84CURSO PARA PROFESSOR - PRÁTICAS E TEORIAS PARA O ENSINO DA DANÇAESMERALDA GAZAL26/07/2017 a 29/07/201716:10 - 18:10205,00281
85Dança Contemporânea - Infantil - Inicianteluciana paludo26/07/2017 a 29/07/201713:30 - 15:30205,002819
86Dança Contemporânea - JÚnior - IntermediÁrioFLÁVIO LIMA26/07/2017 a 29/07/20178:00 - 10:00205,002816
87Dança Contemporânea - SÊnior - IntermediÁrioFLÁVIO LIMA26/07/2017 a 29/07/201710:30 - 12:30205,002810
88DANÇA CONTEMPORÂNEA - SêNIOR - INTERMEDIÁRIO: Danças Negras Contemporâneasrui moreira26/07/2017 a 29/07/201713:30 - 15:30205,002825
89DANÇAS FOLCLÓRICAS ISRAELENSESalain sinai26/07/2017 a 29/07/201710:30 - 12:30205,002827
90DANÇAS URBANAS - SÊNIORHUGO OLIVEIRA26/07/2017 a 29/07/201713:30 - 15:30205,002823
91GESTÃO DE ESCOLAS DE DANÇA (teórico)laisa scandura26/07/2017 a 29/07/201710:30 - 12:30205,00280
92Jazz Dance - Infantil - intermediárioANDREA SPOSITO26/07/2017 a 29/07/201710:30 - 12:30205,002815
93MODERN JAZZ - SÊNIOR - INTERMEDIÁRIOsoraya bastos26/07/2017 a 29/07/201713:30 - 15:30205,00281
94Preparação física para bailarinosMILTON KENNEDY26/07/2017 a 29/07/201716:10 - 18:10205,00280
95SAPATEADO - AVANÇADO: Técnica, clareza e músicamarina coura26/07/2017 a 29/07/201716:10 - 18:10205,002817
96SAPATEADO AMERICANO - INICIANTE: TAP IS BACK!dora de paula26/07/2017 a 29/07/201713:30 - 15:30205,002812
97Técnica de Pontas - júnior - IntermediárioNEYDE ROSSI26/07/2017 a 29/07/201716:10 - 18:10240,003221
 
Festival de Dança de Joinville